GIPSM EGPK-EGPE
Flight info
| Callsign | GIPSM |
|---|---|
| Flight time | 1h 0m |
| Altitude | 4500 |
| Route | OBN |
| Aircraft | BE58/L-SDFGRY/C |
Departure
| Time | 2026-04-24 14:17 |
|---|---|
| Airport | Glasgow Prestwick Airport (EGPK) |
Arrival
| Time | 2026-04-24 15:17 |
|---|---|
| Airport | Inverness Airport (EGPE) |
| Time | Latitude | Longitude | Altitude | Speed | Heading |
|---|---|---|---|---|---|
| 2026-04-24 14:11 | 55.50163 | -4.58225 | 69 ft | 0 kts | 220° |
| 2026-04-24 14:14 | 55.50162 | -4.58226 | 69 ft | 1 kts | 220° |
| 2026-04-24 14:15 | 55.50131 | -4.58213 | 69 ft | 9 kts | 129° |
| 2026-04-24 14:15 | 55.50121 | -4.58089 | 69 ft | 12 kts | 30° |
| 2026-04-24 14:15 | 55.50222 | -4.58010 | 69 ft | 18 kts | 24° |
| 2026-04-24 14:15 | 55.50357 | -4.57906 | 69 ft | 21 kts | 19° |
| 2026-04-24 14:16 | 55.50436 | -4.58002 | 69 ft | 16 kts | 300° |
| 2026-04-24 14:16 | 55.50553 | -4.58343 | 70 ft | 55 kts | 300° |
| 2026-04-24 14:16 | 55.50829 | -4.59146 | 82 ft | 91 kts | 300° |
| 2026-04-24 14:17 | 55.51546 | -4.61074 | 454 ft | 102 kts | 304° |
| 2026-04-24 14:17 | 55.52151 | -4.61679 | 666 ft | 109 kts | 352° |
| 2026-04-24 14:17 | 55.53672 | -4.61419 | 1182 ft | 110 kts | 8° |
| 2026-04-24 14:18 | 55.54472 | -4.61343 | 1343 ft | 118 kts | 345° |
| 2026-04-24 14:18 | 55.55289 | -4.61776 | 1456 ft | 129 kts | 343° |
| 2026-04-24 14:18 | 55.56162 | -4.62267 | 1618 ft | 134 kts | 339° |
| 2026-04-24 14:18 | 55.57009 | -4.63065 | 1733 ft | 141 kts | 329° |
| 2026-04-24 14:19 | 55.57862 | -4.63951 | 1869 ft | 142 kts | 330° |
| 2026-04-24 14:19 | 55.58690 | -4.64814 | 2105 ft | 137 kts | 329° |
| 2026-04-24 14:19 | 55.59483 | -4.65773 | 2247 ft | 140 kts | 325° |
| 2026-04-24 14:19 | 55.60291 | -4.66749 | 2428 ft | 139 kts | 329° |
| 2026-04-24 14:20 | 55.61125 | -4.67603 | 2594 ft | 139 kts | 330° |
| 2026-04-24 14:20 | 55.61924 | -4.68541 | 2742 ft | 140 kts | 325° |
| 2026-04-24 14:20 | 55.62695 | -4.69595 | 2899 ft | 140 kts | 323° |
| 2026-04-24 14:20 | 55.63448 | -4.70712 | 3057 ft | 140 kts | 319° |
| 2026-04-24 14:21 | 55.64130 | -4.71915 | 3234 ft | 139 kts | 313° |
| 2026-04-24 14:21 | 55.64751 | -4.73264 | 3355 ft | 142 kts | 309° |
| 2026-04-24 14:21 | 55.65380 | -4.74679 | 3399 ft | 152 kts | 308° |
| 2026-04-24 14:21 | 55.66012 | -4.76225 | 3425 ft | 160 kts | 305° |
| 2026-04-24 14:22 | 55.66635 | -4.77826 | 3640 ft | 154 kts | 305° |
| 2026-04-24 14:22 | 55.67220 | -4.79401 | 3791 ft | 155 kts | 304° |
| 2026-04-24 14:22 | 55.68459 | -4.82609 | 4062 ft | 155 kts | 307° |
| 2026-04-24 14:23 | 55.69075 | -4.84171 | 4193 ft | 156 kts | 306° |
| 2026-04-24 14:23 | 55.69695 | -4.85767 | 4301 ft | 158 kts | 304° |
| 2026-04-24 14:23 | 55.70277 | -4.87393 | 4441 ft | 155 kts | 303° |
| 2026-04-24 14:23 | 55.70847 | -4.89028 | 4446 ft | 157 kts | 301° |
| 2026-04-24 14:24 | 55.71400 | -4.90694 | 4444 ft | 157 kts | 302° |
| 2026-04-24 14:24 | 55.71970 | -4.92360 | 4449 ft | 157 kts | 302° |
| 2026-04-24 14:24 | 55.72528 | -4.94052 | 4445 ft | 159 kts | 300° |
| 2026-04-24 14:24 | 55.73064 | -4.95776 | 4445 ft | 160 kts | 299° |
| 2026-04-24 14:25 | 55.73576 | -4.97511 | 4448 ft | 160 kts | 297° |
| 2026-04-24 14:25 | 55.74063 | -4.99277 | 4477 ft | 159 kts | 296° |
| 2026-04-24 14:25 | 55.74532 | -5.01060 | 4463 ft | 160 kts | 296° |
| 2026-04-24 14:25 | 55.74985 | -5.02865 | 4487 ft | 158 kts | 294° |
| 2026-04-24 14:26 | 55.75420 | -5.04644 | 4501 ft | 158 kts | 294° |
| 2026-04-24 14:26 | 55.75859 | -5.06434 | 4504 ft | 160 kts | 295° |
| 2026-04-24 14:26 | 55.76324 | -5.08250 | 4515 ft | 159 kts | 296° |
| 2026-04-24 14:26 | 55.76812 | -5.10025 | 4527 ft | 159 kts | 298° |
| 2026-04-24 14:27 | 55.77312 | -5.11759 | 4534 ft | 159 kts | 297° |
| 2026-04-24 14:27 | 55.77790 | -5.13549 | 4549 ft | 159 kts | 296° |
| 2026-04-24 14:27 | 55.78241 | -5.15332 | 4568 ft | 159 kts | 295° |
| 2026-04-24 14:27 | 55.78686 | -5.17145 | 4570 ft | 159 kts | 294° |
| 2026-04-24 14:28 | 55.79154 | -5.18936 | 4563 ft | 160 kts | 298° |
| 2026-04-24 14:28 | 55.79723 | -5.20633 | 4559 ft | 161 kts | 303° |
| 2026-04-24 14:28 | 55.80345 | -5.22286 | 4579 ft | 160 kts | 305° |
| 2026-04-24 14:28 | 55.80994 | -5.23880 | 4574 ft | 160 kts | 308° |
| 2026-04-24 14:29 | 55.81689 | -5.25411 | 4578 ft | 160 kts | 311° |
| 2026-04-24 14:29 | 55.82422 | -5.26919 | 4585 ft | 160 kts | 311° |
| 2026-04-24 14:29 | 55.83149 | -5.28413 | 4560 ft | 162 kts | 312° |
| 2026-04-24 14:29 | 55.83892 | -5.29892 | 4574 ft | 161 kts | 313° |
| 2026-04-24 14:30 | 55.84392 | -5.30883 | 4579 ft | 161 kts | 313° |
| 2026-04-24 14:30 | 55.85382 | -5.32855 | 4568 ft | 161 kts | 313° |
| 2026-04-24 14:30 | 55.86169 | -5.34255 | 4572 ft | 160 kts | 319° |
| 2026-04-24 14:30 | 55.87060 | -5.35472 | 4561 ft | 160 kts | 327° |
| 2026-04-24 14:31 | 55.88038 | -5.36433 | 4565 ft | 160 kts | 336° |
| 2026-04-24 14:31 | 55.89077 | -5.37197 | 4554 ft | 161 kts | 339° |
| 2026-04-24 14:31 | 55.90113 | -5.37929 | 4543 ft | 161 kts | 339° |
| 2026-04-24 14:31 | 55.91163 | -5.38649 | 4534 ft | 161 kts | 339° |
| 2026-04-24 14:32 | 55.92194 | -5.39387 | 4528 ft | 161 kts | 338° |
| 2026-04-24 14:32 | 55.93236 | -5.40134 | 4539 ft | 160 kts | 339° |
| 2026-04-24 14:32 | 55.94278 | -5.40846 | 4526 ft | 161 kts | 340° |
| 2026-04-24 14:32 | 55.95326 | -5.41560 | 4531 ft | 160 kts | 339° |
| 2026-04-24 14:33 | 55.96356 | -5.42289 | 4533 ft | 160 kts | 339° |
| 2026-04-24 14:33 | 55.97396 | -5.43016 | 4528 ft | 160 kts | 340° |
| 2026-04-24 14:33 | 55.98423 | -5.43808 | 4525 ft | 160 kts | 335° |
| 2026-04-24 14:33 | 55.99423 | -5.44733 | 4528 ft | 161 kts | 332° |
| 2026-04-24 14:34 | 56.00387 | -5.45742 | 4522 ft | 161 kts | 329° |
| 2026-04-24 14:34 | 56.01337 | -5.46814 | 4513 ft | 161 kts | 328° |
| 2026-04-24 14:34 | 56.02297 | -5.47814 | 4492 ft | 162 kts | 333° |
| 2026-04-24 14:34 | 56.03305 | -5.48745 | 4491 ft | 162 kts | 333° |
| 2026-04-24 14:35 | 56.04322 | -5.49677 | 4479 ft | 163 kts | 334° |
| 2026-04-24 14:35 | 56.05339 | -5.50568 | 4485 ft | 162 kts | 335° |
| 2026-04-24 14:35 | 56.06348 | -5.51450 | 4501 ft | 161 kts | 333° |
| 2026-04-24 14:35 | 56.07344 | -5.52399 | 4483 ft | 162 kts | 332° |
| 2026-04-24 14:36 | 56.08318 | -5.53369 | 4495 ft | 160 kts | 331° |
| 2026-04-24 14:36 | 56.09292 | -5.54342 | 4497 ft | 160 kts | 332° |
| 2026-04-24 14:36 | 56.10280 | -5.55299 | 4482 ft | 162 kts | 333° |
| 2026-04-24 14:36 | 56.11290 | -5.56203 | 4496 ft | 161 kts | 335° |
| 2026-04-24 14:37 | 56.12306 | -5.57057 | 4492 ft | 161 kts | 335° |
| 2026-04-24 14:37 | 56.13335 | -5.57935 | 4481 ft | 161 kts | 335° |
| 2026-04-24 14:37 | 56.14345 | -5.58760 | 4481 ft | 161 kts | 339° |
| 2026-04-24 14:37 | 56.15422 | -5.59348 | 4456 ft | 162 kts | 348° |
| 2026-04-24 14:38 | 56.16530 | -5.59753 | 4475 ft | 161 kts | 349° |
| 2026-04-24 14:38 | 56.17629 | -5.60153 | 4475 ft | 161 kts | 349° |
| 2026-04-24 14:38 | 56.18729 | -5.60522 | 4456 ft | 162 kts | 351° |
| 2026-04-24 14:38 | 56.19841 | -5.60826 | 4460 ft | 161 kts | 353° |
| 2026-04-24 14:39 | 56.20969 | -5.61028 | 4457 ft | 161 kts | 357° |
| 2026-04-24 14:39 | 56.22075 | -5.61193 | 4462 ft | 161 kts | 354° |
| 2026-04-24 14:39 | 56.23189 | -5.61451 | 4467 ft | 161 kts | 352° |
| 2026-04-24 14:39 | 56.24297 | -5.61763 | 4460 ft | 161 kts | 351° |
| 2026-04-24 14:40 | 56.25395 | -5.62091 | 4474 ft | 160 kts | 352° |
| 2026-04-24 14:40 | 56.26509 | -5.62405 | 4475 ft | 160 kts | 352° |
| 2026-04-24 14:40 | 56.27604 | -5.62703 | 4459 ft | 161 kts | 352° |
| 2026-04-24 14:40 | 56.28730 | -5.62984 | 4467 ft | 160 kts | 354° |
| 2026-04-24 14:41 | 56.29830 | -5.63196 | 4462 ft | 160 kts | 356° |
| 2026-04-24 14:41 | 56.30952 | -5.63314 | 4438 ft | 162 kts | 359° |
| 2026-04-24 14:41 | 56.32086 | -5.63297 | 4438 ft | 161 kts | 4° |
| 2026-04-24 14:41 | 56.33199 | -5.63138 | 4435 ft | 161 kts | 6° |
| 2026-04-24 14:42 | 56.34307 | -5.62793 | 4410 ft | 163 kts | 15° |
| 2026-04-24 14:42 | 56.35374 | -5.62113 | 4417 ft | 161 kts | 25° |
| 2026-04-24 14:42 | 56.36336 | -5.61102 | 4416 ft | 161 kts | 37° |
| 2026-04-24 14:42 | 56.37231 | -5.59863 | 4424 ft | 160 kts | 36° |
| 2026-04-24 14:43 | 56.38143 | -5.58746 | 4427 ft | 160 kts | 32° |
| 2026-04-24 14:43 | 56.39119 | -5.57722 | 4417 ft | 160 kts | 29° |
| 2026-04-24 14:43 | 56.40107 | -5.56809 | 4409 ft | 161 kts | 26° |
| 2026-04-24 14:43 | 56.41128 | -5.55947 | 4416 ft | 160 kts | 25° |
| 2026-04-24 14:44 | 56.42132 | -5.55132 | 4419 ft | 160 kts | 25° |
| 2026-04-24 14:44 | 56.43156 | -5.54295 | 4418 ft | 160 kts | 25° |
| 2026-04-24 14:44 | 56.44164 | -5.53489 | 4420 ft | 160 kts | 24° |
| 2026-04-24 14:44 | 56.45181 | -5.52678 | 4429 ft | 159 kts | 25° |
| 2026-04-24 14:45 | 56.46195 | -5.51827 | 4416 ft | 160 kts | 26° |
| 2026-04-24 14:45 | 56.47182 | -5.50915 | 4409 ft | 160 kts | 29° |
| 2026-04-24 14:45 | 56.48181 | -5.50024 | 4403 ft | 161 kts | 24° |
| 2026-04-24 14:45 | 56.49227 | -5.49268 | 4395 ft | 161 kts | 20° |
| 2026-04-24 14:46 | 56.50288 | -5.48626 | 4395 ft | 161 kts | 17° |
| 2026-04-24 14:46 | 56.51359 | -5.48055 | 4406 ft | 160 kts | 16° |
| 2026-04-24 14:46 | 56.52449 | -5.47510 | 4403 ft | 160 kts | 15° |
| 2026-04-24 14:46 | 56.53529 | -5.46977 | 4411 ft | 160 kts | 14° |
| 2026-04-24 14:47 | 56.54601 | -5.46537 | 4421 ft | 159 kts | 12° |
| 2026-04-24 14:47 | 56.55697 | -5.46166 | 4416 ft | 160 kts | 10° |
| 2026-04-24 14:47 | 56.56787 | -5.45831 | 4412 ft | 160 kts | 10° |
| 2026-04-24 14:47 | 56.57878 | -5.45484 | 4422 ft | 159 kts | 12° |
| 2026-04-24 14:48 | 56.58944 | -5.44927 | 4400 ft | 161 kts | 21° |
| 2026-04-24 14:48 | 56.59965 | -5.44045 | 4404 ft | 160 kts | 31° |
| 2026-04-24 14:48 | 56.60852 | -5.42875 | 4398 ft | 161 kts | 42° |
| 2026-04-24 14:48 | 56.61652 | -5.41426 | 4373 ft | 162 kts | 46° |
| 2026-04-24 14:49 | 56.62435 | -5.39983 | 4391 ft | 160 kts | 45° |
| 2026-04-24 14:49 | 56.63210 | -5.38648 | 4606 ft | 146 kts | 43° |
| 2026-04-24 14:49 | 56.63901 | -5.37430 | 4871 ft | 132 kts | 44° |
| 2026-04-24 14:49 | 56.64536 | -5.36297 | 5068 ft | 125 kts | 44° |
| 2026-04-24 14:50 | 56.65125 | -5.35214 | 5250 ft | 119 kts | 45° |
| 2026-04-24 14:50 | 56.65686 | -5.34148 | 5395 ft | 117 kts | 44° |
| 2026-04-24 14:50 | 56.66286 | -5.33072 | 5413 ft | 126 kts | 44° |
| 2026-04-24 14:50 | 56.66908 | -5.31937 | 5485 ft | 129 kts | 44° |
| 2026-04-24 14:51 | 56.67560 | -5.30762 | 5509 ft | 135 kts | 43° |
| 2026-04-24 14:51 | 56.68264 | -5.29585 | 5551 ft | 139 kts | 41° |
| 2026-04-24 14:51 | 56.68995 | -5.28391 | 5569 ft | 144 kts | 41° |
| 2026-04-24 14:51 | 56.69750 | -5.27181 | 5594 ft | 147 kts | 40° |
| 2026-04-24 14:52 | 56.70538 | -5.25934 | 5555 ft | 152 kts | 40° |
| 2026-04-24 14:52 | 56.71361 | -5.24668 | 5532 ft | 156 kts | 39° |
| 2026-04-24 14:52 | 56.72208 | -5.23408 | 5512 ft | 159 kts | 38° |
| 2026-04-24 14:52 | 56.73076 | -5.22188 | 5490 ft | 160 kts | 36° |
| 2026-04-24 14:53 | 56.74003 | -5.20983 | 5433 ft | 163 kts | 34° |
| 2026-04-24 14:53 | 56.74931 | -5.19814 | 5446 ft | 162 kts | 34° |
| 2026-04-24 14:53 | 56.75852 | -5.18642 | 5434 ft | 162 kts | 34° |
| 2026-04-24 14:53 | 56.76771 | -5.17453 | 5444 ft | 161 kts | 35° |
| 2026-04-24 14:54 | 56.77660 | -5.16218 | 5429 ft | 161 kts | 38° |
| 2026-04-24 14:54 | 56.78512 | -5.14850 | 5424 ft | 161 kts | 43° |
| 2026-04-24 14:54 | 56.79299 | -5.13378 | 5433 ft | 161 kts | 43° |
| 2026-04-24 14:54 | 56.80125 | -5.12009 | 5435 ft | 161 kts | 39° |
| 2026-04-24 14:55 | 56.80705 | -5.11125 | 5432 ft | 161 kts | 38° |
| 2026-04-24 14:55 | 56.81868 | -5.09402 | 5408 ft | 161 kts | 38° |
| 2026-04-24 14:55 | 56.82738 | -5.08091 | 5398 ft | 162 kts | 37° |
| 2026-04-24 14:55 | 56.83630 | -5.06877 | 5402 ft | 161 kts | 34° |
| 2026-04-24 14:56 | 56.84553 | -5.05683 | 5400 ft | 161 kts | 34° |
| 2026-04-24 14:56 | 56.85455 | -5.04493 | 5399 ft | 161 kts | 35° |
| 2026-04-24 14:56 | 56.86347 | -5.03280 | 5409 ft | 160 kts | 36° |
| 2026-04-24 14:56 | 56.87219 | -5.01991 | 5404 ft | 161 kts | 38° |
| 2026-04-24 14:57 | 56.88096 | -5.00692 | 5410 ft | 160 kts | 37° |
| 2026-04-24 14:57 | 56.88961 | -4.99431 | 5408 ft | 160 kts | 37° |
| 2026-04-24 14:57 | 56.89834 | -4.98175 | 5404 ft | 160 kts | 37° |
| 2026-04-24 14:57 | 56.90727 | -4.96931 | 5408 ft | 160 kts | 36° |
| 2026-04-24 14:58 | 56.91610 | -4.95741 | 5404 ft | 160 kts | 35° |
| 2026-04-24 14:58 | 56.92525 | -4.94540 | 5406 ft | 159 kts | 34° |
| 2026-04-24 14:58 | 56.93415 | -4.93361 | 5403 ft | 159 kts | 34° |
| 2026-04-24 14:58 | 56.94318 | -4.92167 | 5400 ft | 159 kts | 35° |
| 2026-04-24 14:59 | 56.95216 | -4.90998 | 5393 ft | 159 kts | 34° |
| 2026-04-24 14:59 | 56.96130 | -4.89833 | 5381 ft | 160 kts | 34° |
| 2026-04-24 14:59 | 56.97035 | -4.88660 | 5372 ft | 160 kts | 34° |
| 2026-04-24 14:59 | 56.97954 | -4.87479 | 5362 ft | 160 kts | 33° |
| 2026-04-24 15:00 | 56.98863 | -4.86312 | 5355 ft | 161 kts | 34° |
| 2026-04-24 15:00 | 56.99762 | -4.85079 | 5367 ft | 160 kts | 36° |
| 2026-04-24 15:00 | 57.00636 | -4.83825 | 5363 ft | 160 kts | 36° |
| 2026-04-24 15:00 | 57.01514 | -4.82585 | 5365 ft | 160 kts | 37° |
| 2026-04-24 15:01 | 57.02378 | -4.81319 | 5368 ft | 159 kts | 37° |
| 2026-04-24 15:01 | 57.03259 | -4.80055 | 5366 ft | 159 kts | 37° |
| 2026-04-24 15:01 | 57.04124 | -4.78804 | 5375 ft | 159 kts | 38° |
| 2026-04-24 15:01 | 57.04971 | -4.77491 | 5369 ft | 159 kts | 40° |
| 2026-04-24 15:02 | 57.05762 | -4.76084 | 5364 ft | 159 kts | 43° |
| 2026-04-24 15:02 | 57.06581 | -4.74693 | 5350 ft | 160 kts | 39° |
| 2026-04-24 15:02 | 57.07441 | -4.73364 | 5347 ft | 161 kts | 38° |
| 2026-04-24 15:02 | 57.08293 | -4.72070 | 5338 ft | 161 kts | 38° |
| 2026-04-24 15:03 | 57.09178 | -4.70765 | 5335 ft | 161 kts | 36° |
| 2026-04-24 15:03 | 57.10029 | -4.69550 | 5345 ft | 161 kts | 36° |
| 2026-04-24 15:03 | 57.10881 | -4.68285 | 5344 ft | 161 kts | 38° |
| 2026-04-24 15:03 | 57.11716 | -4.66899 | 5343 ft | 162 kts | 43° |
| 2026-04-24 15:04 | 57.12508 | -4.65444 | 5337 ft | 162 kts | 40° |
| 2026-04-24 15:04 | 57.13370 | -4.64125 | 5344 ft | 161 kts | 36° |
| 2026-04-24 15:04 | 57.14278 | -4.62924 | 5348 ft | 161 kts | 32° |
| 2026-04-24 15:04 | 57.15213 | -4.61773 | 5345 ft | 161 kts | 31° |
| 2026-04-24 15:05 | 57.16139 | -4.60637 | 5326 ft | 161 kts | 31° |
| 2026-04-24 15:05 | 57.17090 | -4.59501 | 5148 ft | 166 kts | 30° |
| 2026-04-24 15:05 | 57.18063 | -4.58363 | 5076 ft | 163 kts | 30° |
| 2026-04-24 15:05 | 57.19035 | -4.57278 | 4970 ft | 163 kts | 28° |
| 2026-04-24 15:06 | 57.20041 | -4.56247 | 4709 ft | 168 kts | 26° |
| 2026-04-24 15:06 | 57.21059 | -4.55216 | 4615 ft | 163 kts | 26° |
| 2026-04-24 15:06 | 57.22051 | -4.54251 | 4454 ft | 163 kts | 25° |
| 2026-04-24 15:06 | 57.23037 | -4.53175 | 4235 ft | 167 kts | 36° |
| 2026-04-24 15:07 | 57.23868 | -4.51698 | 4119 ft | 164 kts | 48° |
| 2026-04-24 15:07 | 57.24512 | -4.49984 | 3974 ft | 164 kts | 58° |
| 2026-04-24 15:07 | 57.25019 | -4.48076 | 3813 ft | 165 kts | 65° |
| 2026-04-24 15:07 | 57.25452 | -4.46136 | 3707 ft | 162 kts | 65° |
| 2026-04-24 15:08 | 57.25912 | -4.44248 | 3553 ft | 163 kts | 62° |
| 2026-04-24 15:08 | 57.26432 | -4.42408 | 3403 ft | 163 kts | 61° |
| 2026-04-24 15:08 | 57.26911 | -4.40531 | 3280 ft | 162 kts | 64° |
| 2026-04-24 15:08 | 57.27363 | -4.38620 | 3134 ft | 162 kts | 65° |
| 2026-04-24 15:09 | 57.27831 | -4.36730 | 3003 ft | 161 kts | 62° |
| 2026-04-24 15:09 | 57.28339 | -4.34946 | 2889 ft | 159 kts | 59° |
| 2026-04-24 15:09 | 57.28897 | -4.33173 | 2761 ft | 159 kts | 58° |
| 2026-04-24 15:09 | 57.29469 | -4.31447 | 2645 ft | 157 kts | 57° |
| 2026-04-24 15:10 | 57.30062 | -4.29744 | 2501 ft | 157 kts | 54° |
| 2026-04-24 15:10 | 57.30680 | -4.28097 | 2351 ft | 158 kts | 54° |
| 2026-04-24 15:10 | 57.31314 | -4.26438 | 2224 ft | 157 kts | 53° |
| 2026-04-24 15:10 | 57.31957 | -4.24777 | 2093 ft | 159 kts | 52° |
| 2026-04-24 15:11 | 57.32603 | -4.23158 | 2107 ft | 156 kts | 51° |
| 2026-04-24 15:11 | 57.33332 | -4.21678 | 2119 ft | 155 kts | 38° |
| 2026-04-24 15:11 | 57.34264 | -4.20726 | 2109 ft | 155 kts | 21° |
| 2026-04-24 15:11 | 57.35288 | -4.20007 | 2087 ft | 157 kts | 22° |
| 2026-04-24 15:12 | 57.36261 | -4.19140 | 2088 ft | 156 kts | 25° |
| 2026-04-24 15:12 | 57.38240 | -4.17435 | 2069 ft | 156 kts | 23° |
| 2026-04-24 15:12 | 57.39240 | -4.16639 | 2083 ft | 155 kts | 21° |
| 2026-04-24 15:13 | 57.40242 | -4.15866 | 2060 ft | 156 kts | 22° |
| 2026-04-24 15:13 | 57.41244 | -4.15082 | 2057 ft | 156 kts | 22° |
| 2026-04-24 15:13 | 57.42236 | -4.14283 | 2032 ft | 157 kts | 25° |
| 2026-04-24 15:13 | 57.43208 | -4.13321 | 1982 ft | 159 kts | 30° |
| 2026-04-24 15:14 | 57.44133 | -4.12244 | 1989 ft | 157 kts | 33° |
| 2026-04-24 15:14 | 57.45057 | -4.11145 | 1926 ft | 156 kts | 19° |
| 2026-04-24 15:14 | 57.46120 | -4.11274 | 1811 ft | 158 kts | 335° |
| 2026-04-24 15:14 | 57.47095 | -4.12232 | 1738 ft | 156 kts | 332° |
| 2026-04-24 15:15 | 57.48025 | -4.13102 | 1761 ft | 146 kts | 338° |
| 2026-04-24 15:15 | 57.48996 | -4.13430 | 1625 ft | 138 kts | 360° |
| 2026-04-24 15:15 | 57.49920 | -4.13163 | 1405 ft | 132 kts | 20° |
| 2026-04-24 15:15 | 57.50681 | -4.12318 | 1159 ft | 128 kts | 37° |
| 2026-04-24 15:16 | 57.51293 | -4.11160 | 860 ft | 123 kts | 50° |
| 2026-04-24 15:16 | 57.51833 | -4.09964 | 654 ft | 116 kts | 48° |
| 2026-04-24 15:16 | 57.52355 | -4.08882 | 475 ft | 112 kts | 49° |
| 2026-04-24 15:16 | 57.52850 | -4.07801 | 324 ft | 108 kts | 50° |
| 2026-04-24 15:17 | 57.53328 | -4.06759 | 177 ft | 105 kts | 49° |
| 2026-04-24 15:17 | 57.53778 | -4.05765 | 50 ft | 91 kts | 49° |
| 2026-04-24 15:17 | 57.54139 | -4.05019 | 34 ft | 54 kts | 39° |
| 2026-04-24 15:17 | 57.54292 | -4.04838 | 33 ft | 19 kts | 359° |